createdAt,value
2018-12-22T00:00:31.830Z,55.93
2018-12-22T00:03:01.387Z,57.07
2018-12-22T00:05:30.944Z,55.47
2018-12-22T00:08:00.516Z,57.07
2018-12-22T00:10:30.158Z,52.73
2018-12-22T00:12:59.736Z,57.37
2018-12-22T00:15:29.361Z,57.67
2018-12-22T00:17:58.916Z,56.37
2018-12-22T00:20:28.361Z,56.63
2018-12-22T00:22:57.953Z,55.23
2018-12-22T00:25:27.572Z,53.63
2018-12-22T00:27:57.198Z,53.40
2018-12-22T00:30:26.737Z,51.03
2018-12-22T00:32:56.363Z,50.13
2018-12-22T00:35:25.860Z,49.80
2018-12-22T00:37:55.454Z,51.60
2018-12-22T00:40:25.041Z,49.40
2018-12-22T00:42:54.550Z,49.00
2018-12-22T00:45:24.186Z,48.83
2018-12-22T00:47:53.633Z,48.43
2018-12-22T00:50:23.344Z,49.77
2018-12-22T00:52:52.893Z,49.27
2018-12-22T00:55:22.380Z,50.00
2018-12-22T00:57:51.878Z,50.33
2018-12-22T01:00:21.532Z,49.10
2018-12-22T01:02:51.078Z,44.97
2018-12-22T01:05:20.732Z,48.23
2018-12-22T01:07:50.496Z,49.23
2018-12-22T01:10:20.182Z,48.23
2018-12-22T01:12:49.764Z,48.80
2018-12-22T01:15:19.317Z,49.97
2018-12-22T01:17:49.183Z,51.00
2018-12-22T01:20:18.778Z,48.37
2018-12-22T01:22:48.401Z,49.23
2018-12-22T01:25:18.112Z,51.50
2018-12-22T01:27:47.748Z,50.93
2018-12-22T01:30:17.380Z,49.70
2018-12-22T01:32:47.042Z,50.50
2018-12-22T01:35:16.551Z,51.13
2018-12-22T01:37:46.161Z,49.17
2018-12-22T01:40:15.820Z,51.50
2018-12-22T01:42:45.416Z,52.73
2018-12-22T01:45:15.017Z,51.10
2018-12-22T01:47:44.548Z,50.60
2018-12-22T01:50:14.194Z,48.43
2018-12-22T01:52:43.804Z,48.00
2018-12-22T01:55:13.422Z,49.43
2018-12-22T01:57:42.949Z,50.80
2018-12-22T02:00:12.432Z,46.40
2018-12-22T02:02:42.062Z,48.60
2018-12-22T02:05:11.780Z,48.70
2018-12-22T02:07:41.250Z,49.20
2018-12-22T02:10:10.881Z,49.83
2018-12-22T02:12:40.417Z,46.50
2018-12-22T02:15:09.901Z,43.90
2018-12-22T02:17:39.444Z,46.73
2018-12-22T02:20:09.113Z,46.90
2018-12-22T02:22:38.685Z,44.57
2018-12-22T02:25:08.365Z,45.53
2018-12-22T02:27:37.944Z,42.80
2018-12-22T02:30:07.754Z,43.23
2018-12-22T02:32:37.271Z,41.77
2018-12-22T02:35:06.763Z,42.43
2018-12-22T02:37:36.422Z,42.47
2018-12-22T02:40:07.418Z,41.03
2018-12-22T02:42:36.973Z,41.43
2018-12-22T02:45:06.861Z,42.53
2018-12-22T02:47:36.441Z,40.47
2018-12-22T02:50:06.382Z,40.50
2018-12-22T02:52:35.997Z,39.90
2018-12-22T02:55:05.750Z,41.20
2018-12-22T02:57:35.244Z,39.77
2018-12-22T03:00:06.281Z,38.47
2018-12-22T03:02:35.847Z,39.20
2018-12-22T03:05:05.539Z,39.03
2018-12-22T03:07:35.126Z,39.43
2018-12-22T03:10:05.197Z,38.50
2018-12-22T03:12:34.762Z,38.33
2018-12-22T03:15:04.633Z,41.23
2018-12-22T03:17:34.120Z,39.53
2018-12-22T03:20:03.669Z,37.27
2018-12-22T03:22:33.182Z,37.40
2018-12-22T03:25:02.757Z,37.23
2018-12-22T03:27:32.258Z,35.20
2018-12-22T03:30:01.781Z,36.33
2018-12-22T03:32:31.490Z,34.90
2018-12-22T03:35:01.096Z,35.53
2018-12-22T03:37:30.650Z,35.40
2018-12-22T03:40:00.262Z,34.67
2018-12-22T03:42:29.813Z,34.10
2018-12-22T03:44:59.305Z,34.30
2018-12-22T03:47:28.890Z,33.53
2018-12-22T03:49:58.409Z,34.53
2018-12-22T03:52:28.040Z,33.23
2018-12-22T03:54:57.621Z,35.70
2018-12-22T03:57:27.173Z,34.87
2018-12-22T03:59:56.740Z,32.33
2018-12-22T04:02:26.358Z,33.17
2018-12-22T04:04:55.938Z,33.00
2018-12-22T04:07:25.434Z,32.57
2018-12-22T04:09:54.998Z,34.10
2018-12-22T04:12:24.555Z,34.23
2018-12-22T04:14:54.358Z,33.53
2018-12-22T04:17:23.942Z,32.57
2018-12-22T04:19:53.566Z,33.23
2018-12-22T04:22:23.162Z,33.83
2018-12-22T04:24:54.297Z,35.97
2018-12-22T04:27:23.966Z,34.10
2018-12-22T04:29:53.660Z,33.50
2018-12-22T04:32:23.285Z,35.93
2018-12-22T04:34:52.861Z,35.23
2018-12-22T04:37:22.337Z,35.87
2018-12-22T04:39:51.966Z,34.43
2018-12-22T04:42:21.496Z,35.00
2018-12-22T04:44:50.924Z,35.07
2018-12-22T04:47:20.451Z,32.70
2018-12-22T04:49:50.130Z,36.07
2018-12-22T04:52:19.661Z,35.13
2018-12-22T04:54:49.306Z,34.63
2018-12-22T04:57:18.812Z,33.60
2018-12-22T04:59:48.350Z,33.83
2018-12-22T05:02:17.978Z,34.73
2018-12-22T05:04:48.533Z,32.60
2018-12-22T05:07:18.254Z,33.40
2018-12-22T05:09:47.877Z,31.80
2018-12-22T05:12:17.421Z,30.57
2018-12-22T05:14:46.957Z,31.90
2018-12-22T05:17:16.537Z,31.10
2018-12-22T05:19:46.096Z,31.50
2018-12-22T05:22:15.634Z,31.73
2018-12-22T05:24:45.261Z,33.53
2018-12-22T05:27:14.839Z,32.40
2018-12-22T05:29:51.744Z,32.67
2018-12-22T05:32:16.008Z,32.53
2018-12-22T05:34:45.490Z,31.47
2018-12-22T05:37:15.084Z,30.03
2018-12-22T05:39:44.715Z,31.63
2018-12-22T05:42:14.313Z,30.57
2018-12-22T05:44:43.853Z,29.60
2018-12-22T05:47:13.336Z,30.47
2018-12-22T05:49:42.905Z,30.47
2018-12-22T05:52:12.481Z,28.53
2018-12-22T05:54:42.056Z,31.77
2018-12-22T05:57:11.638Z,30.00
2018-12-22T05:59:41.228Z,30.60
2018-12-22T06:02:10.846Z,29.40
2018-12-22T06:04:40.464Z,28.53
2018-12-22T06:07:10.153Z,29.57
2018-12-22T06:09:39.770Z,29.33
2018-12-22T06:12:09.436Z,29.57
2018-12-22T06:14:38.934Z,29.10
2018-12-22T06:17:08.496Z,29.87
2018-12-22T06:19:38.037Z,30.33
2018-12-22T06:22:07.608Z,28.47
2018-12-22T06:24:37.092Z,30.23
2018-12-22T06:27:06.637Z,28.83
2018-12-22T06:29:36.213Z,29.47
2018-12-22T06:32:05.797Z,29.97
2018-12-22T06:34:35.442Z,28.90
2018-12-22T06:37:05.080Z,28.40
2018-12-22T06:39:34.712Z,28.37
2018-12-22T06:42:04.293Z,30.87
2018-12-22T06:44:33.921Z,28.90
2018-12-22T06:47:03.384Z,28.77
2018-12-22T06:49:33.017Z,30.53
2018-12-22T06:52:02.669Z,31.27
2018-12-22T06:54:32.193Z,29.63
2018-12-22T06:57:01.820Z,29.87
2018-12-22T06:59:31.348Z,30.27
2018-12-22T07:02:00.985Z,30.00
2018-12-22T07:04:30.565Z,32.27
2018-12-22T07:07:00.049Z,30.93
2018-12-22T07:09:29.673Z,31.90
2018-12-22T07:11:59.356Z,32.27
2018-12-22T07:14:29.016Z,31.57
2018-12-22T07:16:58.518Z,31.03
2018-12-22T07:19:28.088Z,31.77
2018-12-22T07:21:57.577Z,32.67
2018-12-22T07:24:27.217Z,31.80
2018-12-22T07:26:56.853Z,32.47
2018-12-22T07:29:26.437Z,35.00
2018-12-22T07:31:55.959Z,32.47
2018-12-22T07:34:25.696Z,32.93
2018-12-22T07:36:55.388Z,33.97
2018-12-22T07:39:25.125Z,33.43
2018-12-22T07:41:54.661Z,34.53
2018-12-22T07:44:24.202Z,32.80
2018-12-22T07:46:53.733Z,32.63
2018-12-22T07:49:23.244Z,33.40
2018-12-22T07:51:52.827Z,33.67
2018-12-22T07:54:22.444Z,32.97
2018-12-22T07:56:52.069Z,34.23
2018-12-22T07:59:21.692Z,34.57
2018-12-22T08:01:51.401Z,35.53
2018-12-22T08:04:20.968Z,36.10
2018-12-22T08:06:50.425Z,35.50
2018-12-22T08:09:20.137Z,36.13
2018-12-22T08:11:49.592Z,34.17
2018-12-22T08:14:19.133Z,36.80
2018-12-22T08:16:48.737Z,36.20
2018-12-22T08:19:18.321Z,36.63
2018-12-22T08:21:47.896Z,36.63
2018-12-22T08:24:17.485Z,35.43
2018-12-22T08:26:47.081Z,37.27
2018-12-22T08:29:16.671Z,36.30
2018-12-22T08:31:46.245Z,37.50
2018-12-22T08:34:15.777Z,35.33
2018-12-22T08:36:45.469Z,36.87
2018-12-22T08:39:15.085Z,35.30
2018-12-22T08:41:44.636Z,36.83
2018-12-22T08:44:14.260Z,35.43
2018-12-22T08:46:43.804Z,35.60
2018-12-22T08:49:13.409Z,35.70
2018-12-22T08:51:42.989Z,37.63
2018-12-22T08:54:12.596Z,36.07
2018-12-22T08:56:42.198Z,37.60
2018-12-22T08:59:11.788Z,39.03
2018-12-22T09:01:41.357Z,39.43
2018-12-22T09:04:10.941Z,38.70
2018-12-22T09:06:40.470Z,40.90
2018-12-22T09:09:10.025Z,40.67
2018-12-22T09:11:39.509Z,38.63
2018-12-22T09:14:09.016Z,37.03
2018-12-22T09:16:38.592Z,37.77
2018-12-22T09:19:08.313Z,39.07
2018-12-22T09:21:37.915Z,39.57
2018-12-22T09:24:07.539Z,39.60
2018-12-22T09:26:37.220Z,36.87
2018-12-22T09:29:06.776Z,38.23
2018-12-22T09:31:36.453Z,36.77
2018-12-22T09:34:13.220Z,36.30
2018-12-22T09:36:37.681Z,38.50
2018-12-22T09:39:08.478Z,37.10
2018-12-22T09:41:38.057Z,38.87
2018-12-22T09:44:07.592Z,40.30
2018-12-22T09:46:37.239Z,39.50
2018-12-22T09:49:06.775Z,37.63
2018-12-22T09:51:36.428Z,37.87
2018-12-22T09:54:05.929Z,44.37
2018-12-22T09:56:35.585Z,37.60
2018-12-22T09:59:06.492Z,37.17
2018-12-22T10:01:36.257Z,37.17
2018-12-22T10:04:05.850Z,38.73
2018-12-22T10:06:35.448Z,40.13
2018-12-22T10:09:06.341Z,40.50
2018-12-22T10:11:35.945Z,37.87
2018-12-22T10:14:05.708Z,39.07
2018-12-22T10:16:35.269Z,38.83
2018-12-22T10:19:04.830Z,39.43
2018-12-22T10:21:34.356Z,38.50
2018-12-22T10:24:03.889Z,39.13
2018-12-22T10:26:33.465Z,38.03
2018-12-22T10:29:03.041Z,38.97
2018-12-22T10:31:32.648Z,37.23
2018-12-22T10:34:02.233Z,57.30
2018-12-22T10:36:31.770Z,38.33
2018-12-22T10:39:01.378Z,36.20
2018-12-22T10:41:30.949Z,38.93
2018-12-22T10:44:00.581Z,40.10
2018-12-22T10:46:30.089Z,40.73
2018-12-22T10:48:59.578Z,39.67
2018-12-22T10:51:29.295Z,38.23
2018-12-22T10:53:58.868Z,37.90
2018-12-22T10:56:28.532Z,38.50
2018-12-22T10:58:58.279Z,40.10
2018-12-22T11:01:27.964Z,39.90
2018-12-22T11:03:57.484Z,39.93
2018-12-22T11:06:26.984Z,39.47
2018-12-22T11:08:57.275Z,38.93
2018-12-22T11:11:26.852Z,38.37
2018-12-22T11:13:56.489Z,41.07
2018-12-22T11:16:26.076Z,42.30
2018-12-22T11:18:55.568Z,43.33
2018-12-22T11:21:25.045Z,45.20
2018-12-22T11:23:54.669Z,50.17
2018-12-22T11:26:24.332Z,49.00
2018-12-22T11:28:53.893Z,47.90
2018-12-22T11:31:23.543Z,47.17
2018-12-22T11:33:53.112Z,50.27
2018-12-22T11:36:22.827Z,51.93
2018-12-22T11:38:52.451Z,48.33
2018-12-22T11:41:22.093Z,46.90
2018-12-22T11:43:51.728Z,49.77
2018-12-22T11:46:21.226Z,48.57
2018-12-22T11:49:02.097Z,47.90
2018-12-22T11:51:31.670Z,45.57
2018-12-22T11:54:01.197Z,46.23
2018-12-22T11:56:30.810Z,46.43
2018-12-22T11:59:00.284Z,50.47
2018-12-22T12:01:29.797Z,51.10
2018-12-22T12:03:59.416Z,50.50
2018-12-22T12:06:28.902Z,52.50
2018-12-22T12:08:58.384Z,54.93
2018-12-22T12:11:28.005Z,54.57
2018-12-22T12:13:57.489Z,53.27
2018-12-22T12:18:54.080Z,48.50
2018-12-22T12:21:23.637Z,52.63
2018-12-22T12:23:53.249Z,53.10
2018-12-22T12:26:22.798Z,58.30
2018-12-22T12:28:52.329Z,67.03
2018-12-22T12:31:21.940Z,60.03
2018-12-22T12:33:51.518Z,60.33
2018-12-22T12:36:21.040Z,61.70
2018-12-22T12:38:50.577Z,60.37
2018-12-22T12:41:20.168Z,57.77
2018-12-22T12:43:50.016Z,62.83
2018-12-22T12:46:19.612Z,56.97
2018-12-22T12:48:49.189Z,55.50
2018-12-22T12:51:18.729Z,55.17
2018-12-22T12:53:48.328Z,60.03
2018-12-22T12:56:17.848Z,56.13
2018-12-22T12:58:47.500Z,46.80
2018-12-22T13:01:16.974Z,42.90
2018-12-22T13:03:46.584Z,45.13
2018-12-22T13:06:16.133Z,46.33
2018-12-22T13:08:45.696Z,46.37
2018-12-22T13:11:15.500Z,45.13
2018-12-22T13:13:54.949Z,44.10
2018-12-22T13:16:24.505Z,43.40
2018-12-22T13:18:54.069Z,43.00
2018-12-22T13:21:23.660Z,43.00
2018-12-22T13:23:53.146Z,42.10
2018-12-22T13:26:22.748Z,42.93
2018-12-22T13:28:52.285Z,41.33
2018-12-22T13:31:24.725Z,40.80
2018-12-22T13:33:54.301Z,44.17
2018-12-22T13:36:23.889Z,42.60
2018-12-22T13:39:06.433Z,42.03
2018-12-22T13:41:36.894Z,39.00
2018-12-22T13:44:06.576Z,39.43
2018-12-22T13:46:36.145Z,39.93
2018-12-22T13:49:05.654Z,45.00
2018-12-22T13:51:35.350Z,40.83
2018-12-22T13:54:04.931Z,42.23
2018-12-22T13:56:34.552Z,41.13
2018-12-22T13:59:04.123Z,39.33
2018-12-22T14:01:37.453Z,39.70
2018-12-22T14:04:07.056Z,42.30
2018-12-22T14:06:42.934Z,42.20
2018-12-22T14:09:12.884Z,41.93
2018-12-22T14:11:43.389Z,40.53
2018-12-22T14:14:18.363Z,39.33
2018-12-22T14:17:00.793Z,47.43
2018-12-22T14:19:30.434Z,43.73
2018-12-22T14:22:00.229Z,41.60
2018-12-22T14:24:35.227Z,41.67
2018-12-22T14:27:04.876Z,39.23
2018-12-22T14:29:34.484Z,43.83
2018-12-22T14:32:04.082Z,43.50
2018-12-22T14:34:38.878Z,44.17
2018-12-22T14:37:08.445Z,44.13
2018-12-22T14:39:38.084Z,44.13
2018-12-22T14:42:07.697Z,43.30
2018-12-22T14:44:37.151Z,43.23
2018-12-22T14:47:06.752Z,42.13
2018-12-22T14:49:36.278Z,41.87
2018-12-22T14:52:05.945Z,41.03
2018-12-22T14:54:35.617Z,41.10
2018-12-22T14:57:05.196Z,42.30
2018-12-22T14:59:34.788Z,40.17
2018-12-22T15:02:04.328Z,42.30
2018-12-22T15:04:34.019Z,39.70
2018-12-22T15:07:04.277Z,40.87
2018-12-22T15:09:33.705Z,39.83
2018-12-22T15:12:03.284Z,40.17
2018-12-22T15:14:32.889Z,40.60
2018-12-22T15:17:02.450Z,40.57
2018-12-22T15:19:33.060Z,39.73
2018-12-22T15:22:02.713Z,41.20
2018-12-22T15:24:32.229Z,41.17
2018-12-22T15:27:01.785Z,42.10
2018-12-22T15:29:31.343Z,38.60
2018-12-22T15:32:00.880Z,42.57
2018-12-22T15:34:30.557Z,44.03
2018-12-22T15:37:00.224Z,45.00
2018-12-22T15:39:29.848Z,43.93
2018-12-22T15:41:59.325Z,44.37
2018-12-22T15:44:29.025Z,43.90
2018-12-22T15:46:58.552Z,42.63
2018-12-22T15:49:28.176Z,41.83
2018-12-22T15:51:57.745Z,43.20
2018-12-22T15:54:27.217Z,44.40
2018-12-22T15:56:56.845Z,46.73
2018-12-22T15:59:26.349Z,46.37
2018-12-22T16:01:56.060Z,46.13
2018-12-22T16:04:25.622Z,47.20
2018-12-22T16:06:55.196Z,45.53
2018-12-22T16:09:24.664Z,48.17
2018-12-22T16:11:54.198Z,46.33
2018-12-22T16:14:23.730Z,45.87
2018-12-22T16:16:53.301Z,47.00
2018-12-22T16:19:22.909Z,40.03
2018-12-22T16:21:52.437Z,40.90
2018-12-22T16:24:21.989Z,39.97
2018-12-22T16:26:51.574Z,40.13
2018-12-22T16:29:28.097Z,41.03
2018-12-22T16:31:57.628Z,44.93
2018-12-22T16:34:27.304Z,44.00
2018-12-22T16:36:56.872Z,42.50
2018-12-22T16:39:26.423Z,41.87
2018-12-22T16:41:56.134Z,40.43
2018-12-22T16:44:25.708Z,40.10
2018-12-22T16:46:55.244Z,43.50
2018-12-22T16:49:24.744Z,44.07
2018-12-22T16:51:54.241Z,41.53
2018-12-22T16:54:23.879Z,44.93
2018-12-22T16:56:53.449Z,43.90
2018-12-22T16:59:23.096Z,46.17
2018-12-22T17:02:05.321Z,48.50
2018-12-22T17:04:35.252Z,48.50
2018-12-22T17:07:04.864Z,50.10
2018-12-22T17:09:34.499Z,47.20
2018-12-22T17:12:04.106Z,50.97
2018-12-22T17:14:33.646Z,46.47
2018-12-22T17:17:03.323Z,50.67
2018-12-22T17:19:32.950Z,49.27
2018-12-22T17:22:17.373Z,49.13
2018-12-22T17:24:58.989Z,50.97
2018-12-22T17:27:28.613Z,52.20
2018-12-22T17:29:58.117Z,54.30
2018-12-22T17:32:27.689Z,58.03
2018-12-22T17:34:57.326Z,57.83
2018-12-22T17:37:27.017Z,59.80
2018-12-22T17:39:56.596Z,61.27
2018-12-22T17:42:26.173Z,58.50
2018-12-22T17:44:55.713Z,59.50
2018-12-22T17:47:25.324Z,65.20
2018-12-22T17:49:54.908Z,61.87
2018-12-22T17:52:24.653Z,59.80
2018-12-22T17:54:54.201Z,60.00
2018-12-22T17:57:23.689Z,63.63
2018-12-22T17:59:53.221Z,59.10
2018-12-22T18:02:22.694Z,61.10
2018-12-22T18:04:52.278Z,59.30
2018-12-22T18:07:21.857Z,56.60
2018-12-22T18:09:51.401Z,58.93
2018-12-22T18:12:20.855Z,60.47
2018-12-22T18:14:50.393Z,68.53
2018-12-22T18:17:19.949Z,66.40
2018-12-22T18:19:49.422Z,68.63
2018-12-22T18:22:19.037Z,65.87
2018-12-22T18:24:48.573Z,69.37
2018-12-22T18:27:18.289Z,74.93
2018-12-22T18:29:47.847Z,70.20
2018-12-22T18:32:17.472Z,74.30
2018-12-22T18:34:47.141Z,78.07
2018-12-22T18:37:16.739Z,76.47
2018-12-22T18:39:46.395Z,73.97
2018-12-22T18:42:16.479Z,82.97
2018-12-22T18:44:46.097Z,76.83
2018-12-22T18:47:15.661Z,68.50
2018-12-22T18:49:45.262Z,74.43
2018-12-22T18:52:14.844Z,77.83
2018-12-22T18:54:44.391Z,76.43
2018-12-22T18:57:14.009Z,79.87
2018-12-22T18:59:43.628Z,77.53
2018-12-22T19:02:13.204Z,79.87
2018-12-22T19:04:42.773Z,86.47
2018-12-22T19:07:12.264Z,79.67
2018-12-22T19:09:42.393Z,73.83
2018-12-22T19:12:15.317Z,77.80
2018-12-22T19:14:53.480Z,85.17
2018-12-22T19:17:23.081Z,85.53
2018-12-22T19:19:53.120Z,77.33
2018-12-22T19:22:22.617Z,76.53
2018-12-22T19:24:52.092Z,88.07
2018-12-22T19:27:21.624Z,86.87
2018-12-22T19:29:51.161Z,96.90
2018-12-22T19:32:20.765Z,76.33
2018-12-22T19:34:50.406Z,81.10
2018-12-22T19:37:19.930Z,89.60
2018-12-22T19:39:49.457Z,86.70
2018-12-22T19:42:19.119Z,84.50
2018-12-22T19:44:48.790Z,86.63
2018-12-22T19:47:18.424Z,79.30
2018-12-22T19:49:48.039Z,76.80
2018-12-22T19:52:17.681Z,82.10
2018-12-22T19:54:47.261Z,83.57
2018-12-22T19:57:16.916Z,92.43
2018-12-22T19:59:46.449Z,80.67
2018-12-22T20:02:15.950Z,82.23
2018-12-22T20:04:45.540Z,71.17
2018-12-22T20:07:15.062Z,71.27
2018-12-22T20:09:44.670Z,69.50
2018-12-22T20:12:14.266Z,71.47
2018-12-22T20:14:43.948Z,74.90
2018-12-22T20:17:13.622Z,73.40
2018-12-22T20:19:43.190Z,72.37
2018-12-22T20:22:12.788Z,67.50
2018-12-22T20:24:42.484Z,76.43
2018-12-22T20:27:12.183Z,66.70
2018-12-22T20:29:41.678Z,77.40
2018-12-22T20:32:11.310Z,69.93
2018-12-22T20:34:40.805Z,80.13
2018-12-22T20:37:10.461Z,77.27
2018-12-22T20:39:40.090Z,80.47
2018-12-22T20:42:09.593Z,71.60
2018-12-22T20:44:39.253Z,71.73
2018-12-22T20:47:08.836Z,69.57
2018-12-22T20:49:38.373Z,72.17
2018-12-22T20:52:07.940Z,68.77
2018-12-22T20:54:37.560Z,73.77
2018-12-22T20:57:07.084Z,76.13
2018-12-22T20:59:36.617Z,70.33
2018-12-22T21:02:06.209Z,81.70
2018-12-22T21:04:35.721Z,73.17
2018-12-22T21:07:05.530Z,79.20
2018-12-22T21:09:35.145Z,72.97
2018-12-22T21:12:04.754Z,67.70
2018-12-22T21:14:34.216Z,71.83
2018-12-22T21:17:03.893Z,79.77
2018-12-22T21:19:33.423Z,74.93
2018-12-22T21:22:03.219Z,71.83
2018-12-22T21:24:32.893Z,71.17
2018-12-22T21:27:02.383Z,68.73
2018-12-22T21:29:31.860Z,69.07
2018-12-22T21:32:01.437Z,73.23
2018-12-22T21:34:31.046Z,66.77
2018-12-22T21:37:00.664Z,62.00
2018-12-22T21:39:30.249Z,59.40
2018-12-22T21:41:59.844Z,56.50
2018-12-22T21:44:29.294Z,55.77
2018-12-22T21:46:58.829Z,52.00
2018-12-22T21:49:28.421Z,52.87
2018-12-22T21:51:58.048Z,52.63
2018-12-22T21:54:27.709Z,48.67
2018-12-22T21:56:57.178Z,51.43
2018-12-22T21:59:26.789Z,48.77
2018-12-22T22:01:56.429Z,45.77
2018-12-22T22:04:26.009Z,47.17
2018-12-22T22:06:55.580Z,51.50
2018-12-22T22:09:25.308Z,50.50
2018-12-22T22:11:55.060Z,51.33
2018-12-22T22:14:24.605Z,53.17
2018-12-22T22:16:54.124Z,50.17
2018-12-22T22:19:23.642Z,48.83
2018-12-22T22:21:53.277Z,49.70
2018-12-22T22:24:22.985Z,50.27
2018-12-22T22:26:52.451Z,48.63
2018-12-22T22:29:21.898Z,49.07
2018-12-22T22:31:51.430Z,54.13
2018-12-22T22:34:21.048Z,50.03
2018-12-22T22:36:50.633Z,50.57
2018-12-22T22:39:20.257Z,53.03
2018-12-22T22:41:49.754Z,53.67
2018-12-22T22:44:19.320Z,53.73
2018-12-22T22:46:48.905Z,52.77
2018-12-22T22:49:18.622Z,53.40
2018-12-22T22:51:48.221Z,53.90
2018-12-22T22:54:17.845Z,54.57
2018-12-22T22:56:47.320Z,52.17
2018-12-22T22:59:16.884Z,53.70
2018-12-22T23:01:46.520Z,53.23
2018-12-22T23:04:16.196Z,53.50
2018-12-22T23:06:46.117Z,54.00
2018-12-22T23:09:15.736Z,56.37
2018-12-22T23:11:45.429Z,56.37
2018-12-22T23:14:15.020Z,58.13
2018-12-22T23:16:44.542Z,57.30
2018-12-22T23:19:14.069Z,55.03
2018-12-22T23:21:43.565Z,56.30
2018-12-22T23:24:13.146Z,52.80
2018-12-22T23:26:42.740Z,57.90
2018-12-22T23:29:12.228Z,54.80
2018-12-22T23:31:41.868Z,54.73
2018-12-22T23:34:11.376Z,48.63
2018-12-22T23:36:40.905Z,49.97
2018-12-22T23:39:10.564Z,51.17
2018-12-22T23:41:40.184Z,52.37
2018-12-22T23:44:09.711Z,55.67
2018-12-22T23:46:39.406Z,51.30
2018-12-22T23:49:08.897Z,51.73
2018-12-22T23:51:38.745Z,50.37
2018-12-22T23:54:08.352Z,49.23
2018-12-22T23:56:37.916Z,48.83
2018-12-22T23:59:07.460Z,50.97
